PWSweather.com
Personal Weather Stations
Station Observations
VPOKROGLO
Kal Nad Kanalom, PrimorskaSI

Kal Nad KanalomPrimorskaSI

Lat: 46.072, Lon: 13.734

Elevation: 2526

Station Type: WS-2355

https://okroglovreme.com

Latest ConditionsUpdated 4:45:00 PM GMT+01:01 Thursday, Nov 15, 2018
Currently Today's Max Today's Min Today's Average
Temperature 44.8°F7.1°C 50.7°F10.4°C 43.9°F6.6°C 46.4°F8.0°C
Dew Point 35.6°F2.0°C 40.2°F4.6°C 35.6°F2.0°C 38.2°F3.4°C
Winds 8.2 mph ESE13.2 kmh ESE 9.2 mph -14.8 kmh - - 6.5 mph 10.5 kmh
Wind Gusts 15.9 mph25.6 kmh 23.7 mph38.1 kmh - -
Humidity 70% 82% 65% 73%
Pressure 30.26 in1024.7 mb 30.36 in1028.1 mb 30.25 in1024.4 mb -
Hour Temp Dew Point Humidity Winds Wind Gusts Pressure Precip Precip Rate Daily Precip Total
04:45 PM 44.8°F7.1°C 35.6°F2.0°C 70% 8.2 mph ESE13.2 kmh ESE 15.9 mph25.6 kmh 30.26 in1024.7 mb 0.00 in0.0 mm 0.00 in0.0 mm 0.00 in0.0 mm
04:30 PM 45.1°F7.3°C 36.3°F2.4°C 71% 8.1 mph SE13.0 kmh SE 19.7 mph31.7 kmh 30.26 in1024.7 mb 0.00 in0.0 mm 0.00 in0.0 mm 0.00 in0.0 mm
04:15 PM 45.7°F7.6°C 36.5°F2.5°C 70% 7.4 mph ESE11.9 kmh ESE 15.4 mph24.8 kmh 30.25 in1024.4 mb 0.00 in0.0 mm 0.00 in0.0 mm 0.00 in0.0 mm
04:00 PM 46.2°F7.9°C 36.6°F2.6°C 69% 6.9 mph SSE11.1 kmh SSE 15.9 mph25.6 kmh 30.26 in1024.7 mb 0.00 in0.0 mm 0.00 in0.0 mm 0.00 in0.0 mm
03:45 PM 47.1°F8.4°C 37.5°F3.1°C 69% 5.9 mph SE9.5 kmh SE 13.4 mph21.6 kmh 30.26 in1024.7 mb 0.00 in0.0 mm 0.00 in0.0 mm 0.00 in0.0 mm
03:30 PM 47.5°F8.6°C 37.8°F3.2°C 69% 6.1 mph S9.8 kmh S 15.4 mph24.8 kmh 30.27 in1025.1 mb 0.00 in0.0 mm 0.00 in0.0 mm 0.00 in0.0 mm
03:15 PM 47.8°F8.8°C 37.7°F3.2°C 68% 6.4 mph S10.3 kmh S 19.7 mph31.7 kmh 30.27 in1025.1 mb 0.00 in0.0 mm 0.00 in0.0 mm 0.00 in0.0 mm
03:00 PM 48.4°F9.1°C 38.2°F3.4°C 68% 5.9 mph SW9.5 kmh SW 15.0 mph24.1 kmh 30.27 in1025.1 mb 0.00 in0.0 mm 0.00 in0.0 mm 0.00 in0.0 mm
02:45 PM 48.0°F8.9°C 37.5°F3.1°C 67% 7.2 mph S11.6 kmh S 18.8 mph30.3 kmh 30.28 in1025.4 mb 0.00 in0.0 mm 0.00 in0.0 mm 0.00 in0.0 mm
02:30 PM 49.8°F9.9°C 38.5°F3.6°C 65% 5.9 mph S9.5 kmh S 16.3 mph26.2 kmh 30.29 in1025.7 mb 0.00 in0.0 mm 0.00 in0.0 mm 0.00 in0.0 mm
02:15 PM 50.0°F10.0°C 39.1°F3.9°C 66% 5.7 mph S9.2 kmh S 18.3 mph29.5 kmh 30.29 in1025.7 mb 0.00 in0.0 mm 0.00 in0.0 mm 0.00 in0.0 mm
02:00 PM 50.2°F10.1°C 38.8°F3.8°C 65% 7.0 mph S11.3 kmh S 15.2 mph24.5 kmh 30.29 in1025.7 mb 0.00 in0.0 mm 0.00 in0.0 mm 0.00 in0.0 mm
01:45 PM 50.7°F10.4°C 39.3°F4.1°C 65% 4.1 mph SW6.6 kmh SW 9.6 mph15.4 kmh 30.29 in1025.7 mb 0.00 in0.0 mm 0.00 in0.0 mm 0.00 in0.0 mm
01:30 PM 50.5°F10.3°C 39.2°F4.0°C 65% 5.0 mph N8.0 kmh N 15.7 mph25.3 kmh 30.30 in1026.1 mb 0.00 in0.0 mm 0.00 in0.0 mm 0.00 in0.0 mm
01:15 PM 49.8°F9.9°C 38.5°F3.6°C 65% 5.6 mph N9.0 kmh N 15.2 mph24.5 kmh 30.30 in1026.1 mb 0.00 in0.0 mm 0.00 in0.0 mm 0.00 in0.0 mm
01:00 PM 49.8°F9.9°C 38.9°F3.8°C 66% 5.7 mph NNE9.2 kmh NNE 12.5 mph20.1 kmh 30.30 in1026.1 mb 0.00 in0.0 mm 0.00 in0.0 mm 0.00 in0.0 mm
12:45 PM 49.6°F9.8°C 38.7°F3.7°C 66% 7.8 mph SSE12.6 kmh SSE 17.4 mph28.0 kmh 30.31 in1026.4 mb 0.00 in0.0 mm 0.00 in0.0 mm 0.00 in0.0 mm
12:30 PM 49.8°F9.9°C 39.3°F4.1°C 67% 6.0 mph NNW9.7 kmh NNW 15.2 mph24.5 kmh 30.31 in1026.4 mb 0.00 in0.0 mm 0.00 in0.0 mm 0.00 in0.0 mm
12:15 PM 49.6°F9.8°C 39.1°F3.9°C 67% 6.5 mph E10.5 kmh E 17.7 mph28.5 kmh 30.31 in1026.4 mb 0.00 in0.0 mm 0.00 in0.0 mm 0.00 in0.0 mm
12:00 PM 49.6°F9.8°C 39.1°F3.9°C 67% 7.2 mph N11.6 kmh N 21.3 mph34.3 kmh 30.31 in1026.4 mb 0.00 in0.0 mm 0.00 in0.0 mm 0.00 in0.0 mm
11:45 AM 49.3°F9.6°C 39.1°F3.9°C 68% 5.2 mph NNE8.4 kmh NNE 16.1 mph25.9 kmh 30.32 in1026.8 mb 0.00 in0.0 mm 0.00 in0.0 mm 0.00 in0.0 mm
11:30 AM 49.3°F9.6°C 39.1°F3.9°C 68% 5.8 mph ENE9.3 kmh ENE 12.1 mph19.5 kmh 30.32 in1026.8 mb 0.00 in0.0 mm 0.00 in0.0 mm 0.00 in0.0 mm
11:15 AM 48.4°F9.1°C 38.2°F3.4°C 68% 6.4 mph SE10.3 kmh SE 14.8 mph23.8 kmh 30.33 in1027.1 mb 0.00 in0.0 mm 0.00 in0.0 mm 0.00 in0.0 mm
11:00 AM 48.2°F9.0°C 38.8°F3.8°C 70% 5.6 mph E9.0 kmh E 12.1 mph19.5 kmh 30.33 in1027.1 mb 0.00 in0.0 mm 0.00 in0.0 mm 0.00 in0.0 mm
10:45 AM 50.4°F10.2°C 40.2°F4.6°C 68% 7.4 mph SW11.9 kmh SW 16.6 mph26.7 kmh 30.34 in1027.4 mb 0.00 in0.0 mm 0.00 in0.0 mm 0.00 in0.0 mm
10:30 AM 47.5°F8.6°C 38.2°F3.4°C 70% 7.3 mph SSE11.7 kmh SSE 18.3 mph29.5 kmh 30.34 in1027.4 mb 0.00 in0.0 mm 0.00 in0.0 mm 0.00 in0.0 mm
10:15 AM 47.3°F8.5°C 38.0°F3.3°C 70% 9.2 mph S14.8 kmh S 19.5 mph31.4 kmh 30.33 in1027.1 mb 0.00 in0.0 mm 0.00 in0.0 mm 0.00 in0.0 mm
10:00 AM 47.5°F8.6°C 38.4°F3.6°C 71% 6.8 mph ENE10.9 kmh ENE 19.2 mph30.9 kmh 30.32 in1026.8 mb 0.00 in0.0 mm 0.00 in0.0 mm 0.00 in0.0 mm
09:45 AM 46.9°F8.3°C 38.0°F3.3°C 71% 7.0 mph SE11.3 kmh SE 18.8 mph30.3 kmh 30.33 in1027.1 mb 0.00 in0.0 mm 0.00 in0.0 mm 0.00 in0.0 mm
09:30 AM 46.0°F7.8°C 37.9°F3.3°C 73% 8.3 mph SSE13.4 kmh SSE 16.6 mph26.7 kmh 30.33 in1027.1 mb 0.00 in0.0 mm 0.00 in0.0 mm 0.00 in0.0 mm
09:15 AM 46.0°F7.8°C 38.2°F3.4°C 74% 7.4 mph SE11.9 kmh SE 19.7 mph31.7 kmh 30.33 in1027.1 mb 0.00 in0.0 mm 0.00 in0.0 mm 0.00 in0.0 mm
09:00 AM 45.3°F7.4°C 37.9°F3.3°C 75% 6.3 mph SSE10.1 kmh SSE 18.6 mph29.9 kmh 30.33 in1027.1 mb 0.00 in0.0 mm 0.00 in0.0 mm 0.00 in0.0 mm
08:45 AM 45.0°F7.2°C 37.5°F3.1°C 75% 6.7 mph S10.8 kmh S 14.3 mph23.0 kmh 30.33 in1027.1 mb 0.00 in0.0 mm 0.00 in0.0 mm 0.00 in0.0 mm
08:30 AM 43.9°F6.6°C 37.1°F2.8°C 77% 5.8 mph S9.3 kmh S 12.5 mph20.1 kmh 30.33 in1027.1 mb 0.00 in0.0 mm 0.00 in0.0 mm 0.00 in0.0 mm
08:15 AM 43.9°F6.6°C 36.8°F2.7°C 76% 5.3 mph SSE8.5 kmh SSE 14.1 mph22.7 kmh 30.33 in1027.1 mb 0.00 in0.0 mm 0.00 in0.0 mm 0.00 in0.0 mm
08:00 AM 43.9°F6.6°C 36.8°F2.7°C 76% 5.0 mph SE8.0 kmh SE 11.6 mph18.7 kmh 30.33 in1027.1 mb 0.00 in0.0 mm 0.00 in0.0 mm 0.00 in0.0 mm
07:45 AM 44.4°F6.9°C 37.3°F2.9°C 76% 7.2 mph SE11.6 kmh SE 14.3 mph23.0 kmh 30.33 in1027.1 mb 0.00 in0.0 mm 0.00 in0.0 mm 0.00 in0.0 mm
07:30 AM 44.2°F6.8°C 37.1°F2.8°C 76% 3.5 mph ENE5.6 kmh ENE 11.4 mph18.3 kmh 30.33 in1027.1 mb 0.00 in0.0 mm 0.00 in0.0 mm 0.00 in0.0 mm
07:15 AM 44.2°F6.8°C 37.1°F2.8°C 76% 4.6 mph SE7.4 kmh SE 14.5 mph23.3 kmh 30.33 in1027.1 mb 0.00 in0.0 mm 0.00 in0.0 mm 0.00 in0.0 mm
07:00 AM 44.2°F6.8°C 37.1°F2.8°C 76% 5.7 mph SSE9.2 kmh SSE 13.0 mph20.9 kmh 30.33 in1027.1 mb 0.00 in0.0 mm 0.00 in0.0 mm 0.00 in0.0 mm
06:45 AM 44.4°F6.9°C 37.3°F2.9°C 76% 6.7 mph ESE10.8 kmh ESE 14.1 mph22.7 kmh 30.33 in1027.1 mb 0.00 in0.0 mm 0.00 in0.0 mm 0.00 in0.0 mm
06:30 AM 44.4°F6.9°C 37.3°F2.9°C 76% 6.5 mph S10.5 kmh S 16.8 mph27.0 kmh 30.32 in1026.8 mb 0.00 in0.0 mm 0.00 in0.0 mm 0.00 in0.0 mm
06:15 AM 44.4°F6.9°C 37.3°F2.9°C 76% 5.2 mph ENE8.4 kmh ENE 15.9 mph25.6 kmh 30.32 in1026.8 mb 0.00 in0.0 mm 0.00 in0.0 mm 0.00 in0.0 mm
06:00 AM 44.8°F7.1°C 37.7°F3.2°C 76% 7.5 mph NE12.1 kmh NE 22.6 mph36.4 kmh 30.32 in1026.8 mb 0.00 in0.0 mm 0.00 in0.0 mm 0.00 in0.0 mm
05:45 AM 44.4°F6.9°C 37.3°F2.9°C 76% 5.8 mph NE9.3 kmh NE 16.3 mph26.2 kmh 30.33 in1027.1 mb 0.00 in0.0 mm 0.00 in0.0 mm 0.00 in0.0 mm
05:30 AM 44.8°F7.1°C 38.0°F3.3°C 77% 7.1 mph ENE11.4 kmh ENE 21.9 mph35.2 kmh 30.33 in1027.1 mb 0.00 in0.0 mm 0.00 in0.0 mm 0.00 in0.0 mm
05:15 AM 44.8°F7.1°C 38.0°F3.3°C 77% 6.3 mph ENE10.1 kmh ENE 21.7 mph34.9 kmh 30.32 in1026.8 mb 0.00 in0.0 mm 0.00 in0.0 mm 0.00 in0.0 mm
05:00 AM 45.0°F7.2°C 38.2°F3.4°C 77% 6.4 mph NE10.3 kmh NE 15.0 mph24.1 kmh 30.32 in1026.8 mb 0.00 in0.0 mm 0.00 in0.0 mm 0.00 in0.0 mm
04:45 AM 45.0°F7.2°C 38.2°F3.4°C 77% 7.3 mph E11.7 kmh E 16.8 mph27.0 kmh 30.32 in1026.8 mb 0.00 in0.0 mm 0.00 in0.0 mm 0.00 in0.0 mm
04:30 AM 45.0°F7.2°C 38.2°F3.4°C 77% 6.5 mph E10.5 kmh E 18.3 mph29.5 kmh 30.33 in1027.1 mb 0.00 in0.0 mm 0.00 in0.0 mm 0.00 in0.0 mm
04:15 AM 45.0°F7.2°C 38.2°F3.4°C 77% 5.3 mph SE8.5 kmh SE 13.6 mph21.9 kmh 30.32 in1026.8 mb 0.00 in0.0 mm 0.00 in0.0 mm 0.00 in0.0 mm
04:00 AM 45.1°F7.3°C 38.4°F3.6°C 77% 6.1 mph SE9.8 kmh SE 17.0 mph27.4 kmh 30.32 in1026.8 mb 0.00 in0.0 mm 0.00 in0.0 mm 0.00 in0.0 mm
03:45 AM 45.1°F7.3°C 38.4°F3.6°C 77% 6.0 mph SE9.7 kmh SE 23.5 mph37.8 kmh 30.32 in1026.8 mb 0.00 in0.0 mm 0.00 in0.0 mm 0.00 in0.0 mm
03:30 AM 45.1°F7.3°C 38.0°F3.3°C 76% 5.8 mph SE9.3 kmh SE 18.8 mph30.3 kmh 30.32 in1026.8 mb 0.00 in0.0 mm 0.00 in0.0 mm 0.00 in0.0 mm
03:15 AM 45.1°F7.3°C 38.4°F3.6°C 77% 5.9 mph E9.5 kmh E 15.9 mph25.6 kmh 30.32 in1026.8 mb 0.00 in0.0 mm 0.00 in0.0 mm 0.00 in0.0 mm
03:00 AM 45.1°F7.3°C 38.4°F3.6°C 77% 6.3 mph NE10.1 kmh NE 21.3 mph34.3 kmh 30.33 in1027.1 mb 0.00 in0.0 mm 0.00 in0.0 mm 0.00 in0.0 mm
02:45 AM 45.1°F7.3°C 38.4°F3.6°C 77% 7.0 mph SE11.3 kmh SE 19.7 mph31.7 kmh 30.33 in1027.1 mb 0.00 in0.0 mm 0.00 in0.0 mm 0.00 in0.0 mm
02:30 AM 45.1°F7.3°C 38.7°F3.7°C 78% 6.1 mph ENE9.8 kmh ENE 18.1 mph29.1 kmh 30.34 in1027.4 mb 0.00 in0.0 mm 0.00 in0.0 mm 0.00 in0.0 mm
02:15 AM 45.3°F7.4°C 38.9°F3.8°C 78% 7.4 mph SE11.9 kmh SE 18.1 mph29.1 kmh 30.34 in1027.4 mb 0.00 in0.0 mm 0.00 in0.0 mm 0.00 in0.0 mm
02:00 AM 45.1°F7.3°C 38.7°F3.7°C 78% 7.3 mph E11.7 kmh E 21.7 mph34.9 kmh 30.34 in1027.4 mb 0.00 in0.0 mm 0.00 in0.0 mm 0.00 in0.0 mm
01:45 AM 45.0°F7.2°C 38.9°F3.8°C 79% 6.9 mph SE11.1 kmh SE 18.1 mph29.1 kmh 30.34 in1027.4 mb 0.00 in0.0 mm 0.00 in0.0 mm 0.00 in0.0 mm
01:30 AM 45.0°F7.2°C 38.9°F3.8°C 79% 6.8 mph SE10.9 kmh SE 15.2 mph24.5 kmh 30.34 in1027.4 mb 0.00 in0.0 mm 0.00 in0.0 mm 0.00 in0.0 mm
01:15 AM 44.8°F7.1°C 38.7°F3.7°C 79% 7.3 mph SSE11.7 kmh SSE 19.2 mph30.9 kmh 30.34 in1027.4 mb 0.00 in0.0 mm 0.00 in0.0 mm 0.00 in0.0 mm
01:00 AM 44.8°F7.1°C 38.7°F3.7°C 79% 7.2 mph SE11.6 kmh SE 23.7 mph38.1 kmh 30.34 in1027.4 mb 0.00 in0.0 mm 0.00 in0.0 mm 0.00 in0.0 mm
12:45 AM 45.0°F7.2°C 39.2°F4.0°C 80% 8.1 mph ESE13.0 kmh ESE 19.2 mph30.9 kmh 30.34 in1027.4 mb 0.00 in0.0 mm 0.00 in0.0 mm 0.00 in0.0 mm
12:30 AM 45.0°F7.2°C 39.5°F4.2°C 81% 7.1 mph ESE11.4 kmh ESE 16.6 mph26.7 kmh 30.34 in1027.4 mb 0.00 in0.0 mm 0.00 in0.0 mm 0.00 in0.0 mm
12:15 AM 45.0°F7.2°C 39.8°F4.3°C 82% 7.1 mph SE11.4 kmh SE 23.5 mph37.8 kmh 30.35 in1027.8 mb 0.00 in0.0 mm 0.00 in0.0 mm 0.00 in0.0 mm
12:00 AM 45.0°F7.2°C 39.8°F4.3°C 82% 7.3 mph ENE11.7 kmh ENE 17.2 mph27.7 kmh 30.36 in1028.1 mb 0.00 in0.0 mm 0.00 in0.0 mm 0.00 in0.0 mm